createdAt,value
2018-10-11T00:01:54.846Z,99.90
2018-10-11T00:04:23.286Z,99.90
2018-10-11T00:06:51.788Z,99.90
2018-10-11T00:09:20.251Z,99.90
2018-10-11T00:11:48.782Z,99.90
2018-10-11T00:14:17.328Z,99.90
2018-10-11T00:16:45.772Z,99.90
2018-10-11T00:19:14.210Z,99.90
2018-10-11T00:21:42.646Z,99.90
2018-10-11T00:24:11.102Z,99.90
2018-10-11T00:26:39.884Z,99.90
2018-10-11T00:29:08.434Z,99.90
2018-10-11T00:31:37.048Z,99.90
2018-10-11T00:34:06.474Z,99.90
2018-10-11T00:36:34.966Z,99.90
2018-10-11T00:39:05.509Z,99.90
2018-10-11T00:41:33.943Z,99.90
2018-10-11T00:44:02.490Z,99.90
2018-10-11T00:46:31.280Z,99.90
2018-10-11T00:49:00.881Z,99.90
2018-10-11T00:51:29.555Z,99.90
2018-10-11T00:53:58.054Z,99.90
2018-10-11T00:56:26.657Z,99.90
2018-10-11T00:58:55.135Z,99.90
2018-10-11T01:01:23.658Z,99.90
2018-10-11T01:03:52.176Z,99.90
2018-10-11T01:06:21.120Z,99.90
2018-10-11T01:08:49.553Z,99.90
2018-10-11T01:11:18.068Z,99.90
2018-10-11T01:13:46.501Z,99.90
2018-10-11T01:16:14.969Z,99.90
2018-10-11T01:18:43.529Z,99.90
2018-10-11T01:21:12.088Z,99.90
2018-10-11T01:23:40.560Z,99.90
2018-10-11T01:26:09.176Z,99.90
2018-10-11T01:28:37.589Z,99.90
2018-10-11T01:31:11.430Z,99.90
2018-10-11T01:33:39.890Z,99.90
2018-10-11T01:36:08.360Z,99.90
2018-10-11T01:38:36.862Z,99.90
2018-10-11T01:41:05.348Z,99.90
2018-10-11T01:43:33.952Z,99.90
2018-10-11T01:46:02.416Z,99.90
2018-10-11T01:48:30.914Z,99.90
2018-10-11T01:50:59.339Z,99.90
2018-10-11T01:53:27.831Z,99.90
2018-10-11T01:55:56.315Z,99.90
2018-10-11T01:58:24.777Z,99.90
2018-10-11T02:00:53.316Z,99.90
2018-10-11T02:03:21.809Z,99.90
2018-10-11T02:05:50.255Z,99.90
2018-10-11T02:08:18.709Z,99.90
2018-10-11T02:10:47.275Z,99.90
2018-10-11T02:13:15.849Z,99.90
2018-10-11T02:15:44.294Z,99.90
2018-10-11T02:18:12.739Z,99.90
2018-10-11T02:20:41.210Z,99.90
2018-10-11T02:23:09.680Z,99.90
2018-10-11T02:25:38.694Z,99.90
2018-10-11T02:28:07.764Z,99.90
2018-10-11T02:30:36.222Z,99.90
2018-10-11T02:33:04.712Z,99.90
2018-10-11T02:35:33.149Z,99.90
2018-10-11T02:38:01.601Z,99.90
2018-10-11T02:40:30.103Z,99.90
2018-10-11T02:42:58.903Z,99.90
2018-10-11T02:45:27.421Z,99.90
2018-10-11T02:47:55.903Z,99.90
2018-10-11T02:50:24.405Z,99.90
2018-10-11T02:52:52.930Z,99.90
2018-10-11T02:55:24.524Z,99.90
2018-10-11T02:58:04.429Z,99.90
2018-10-11T03:00:34.049Z,99.90
2018-10-11T03:03:06.502Z,99.90
2018-10-11T03:05:38.789Z,99.90
2018-10-11T03:08:09.113Z,99.90
2018-10-11T03:10:44.357Z,99.90
2018-10-11T03:13:13.895Z,99.90
2018-10-11T03:15:43.160Z,99.90
2018-10-11T03:18:12.495Z,99.90
2018-10-11T03:20:42.706Z,99.90
2018-10-11T03:23:11.955Z,99.90
2018-10-11T03:25:41.329Z,99.90
2018-10-11T03:28:10.438Z,99.90
2018-10-11T03:30:39.847Z,99.90
2018-10-11T03:33:08.345Z,99.90
2018-10-11T03:35:36.754Z,99.90
2018-10-11T03:38:05.301Z,99.90
2018-10-11T03:40:33.770Z,99.90
2018-10-11T03:43:02.328Z,99.90
2018-10-11T03:45:30.899Z,99.90
2018-10-11T03:47:59.626Z,99.90
2018-10-11T03:50:28.255Z,99.90
2018-10-11T03:52:57.611Z,99.90
2018-10-11T03:55:26.211Z,99.90
2018-10-11T03:57:54.707Z,99.90
2018-10-11T04:00:23.815Z,99.90
2018-10-11T04:02:52.430Z,99.90
2018-10-11T04:05:21.521Z,99.90
2018-10-11T04:07:50.020Z,99.90
2018-10-11T04:10:18.458Z,99.90
2018-10-11T04:12:46.903Z,99.90
2018-10-11T04:15:15.448Z,99.90
2018-10-11T04:17:43.954Z,99.90
2018-10-11T04:20:12.919Z,99.90
2018-10-11T04:22:41.369Z,99.90
2018-10-11T04:25:09.881Z,99.90
2018-10-11T04:27:38.418Z,99.90
2018-10-11T04:30:06.991Z,99.90
2018-10-11T04:32:35.629Z,99.90
2018-10-11T04:35:04.117Z,99.90
2018-10-11T04:37:32.683Z,99.90
2018-10-11T04:40:01.264Z,99.90
2018-10-11T04:42:29.913Z,99.90
2018-10-11T04:44:58.489Z,99.90
2018-10-11T04:47:27.084Z,99.90
2018-10-11T04:49:55.563Z,99.90
2018-10-11T04:52:24.095Z,99.90
2018-10-11T04:54:52.644Z,99.90
2018-10-11T04:57:21.100Z,99.90
2018-10-11T04:59:49.588Z,99.90
2018-10-11T05:02:18.024Z,99.90
2018-10-11T05:04:46.602Z,99.90
2018-10-11T05:07:15.119Z,99.90
2018-10-11T05:09:43.665Z,99.90
2018-10-11T05:12:12.377Z,99.90
2018-10-11T05:14:41.002Z,99.90
2018-10-11T05:17:09.762Z,99.90
2018-10-11T05:19:39.599Z,99.90
2018-10-11T05:22:08.075Z,99.90
2018-10-11T05:24:36.623Z,99.90
2018-10-11T05:27:05.148Z,99.90
2018-10-11T05:29:33.710Z,99.90
2018-10-11T05:32:02.520Z,99.90
2018-10-11T05:34:31.060Z,99.90
2018-10-11T05:36:59.500Z,99.90
2018-10-11T05:39:28.059Z,99.90
2018-10-11T05:41:56.753Z,99.90
2018-10-11T05:44:25.315Z,99.90
2018-10-11T05:46:53.871Z,99.90
2018-10-11T05:49:22.485Z,99.90
2018-10-11T05:51:51.156Z,99.90
2018-10-11T05:54:19.847Z,99.90
2018-10-11T05:56:49.117Z,99.90
2018-10-11T05:59:17.581Z,99.90
2018-10-11T06:01:46.174Z,99.90
2018-10-11T06:04:14.888Z,99.90
2018-10-11T06:06:45.674Z,99.90
2018-10-11T06:09:14.402Z,99.90
2018-10-11T06:11:43.661Z,99.90
2018-10-11T06:14:12.821Z,99.90
2018-10-11T06:16:41.481Z,99.90
2018-10-11T06:19:10.130Z,99.90
2018-10-11T06:21:38.690Z,99.90
2018-10-11T06:24:07.255Z,99.90
2018-10-11T06:26:35.711Z,99.90
2018-10-11T06:29:04.308Z,99.90
2018-10-11T06:31:32.898Z,99.90
2018-10-11T06:34:01.502Z,99.90
2018-10-11T06:36:30.193Z,99.90
2018-10-11T06:38:59.492Z,99.90
2018-10-11T06:41:28.136Z,99.90
2018-10-11T06:43:57.109Z,99.90
2018-10-11T06:46:25.736Z,99.90
2018-10-11T06:48:54.290Z,99.90
2018-10-11T06:51:22.894Z,99.90
2018-10-11T06:53:51.764Z,99.90
2018-10-11T06:56:20.799Z,99.90
2018-10-11T06:58:49.303Z,99.90
2018-10-11T07:01:18.342Z,99.90
2018-10-11T07:03:46.838Z,99.90
2018-10-11T07:06:15.443Z,99.90
2018-10-11T07:08:44.128Z,99.90
2018-10-11T07:11:12.698Z,99.90
2018-10-11T07:13:41.306Z,99.90
2018-10-11T07:16:09.878Z,99.90
2018-10-11T07:18:38.352Z,99.90
2018-10-11T07:21:06.816Z,99.90
2018-10-11T07:23:35.499Z,99.90
2018-10-11T07:26:04.209Z,99.90
2018-10-11T07:28:33.045Z,99.90
2018-10-11T07:31:02.676Z,99.90
2018-10-11T07:33:31.271Z,99.90
2018-10-11T07:35:59.819Z,99.50
2018-10-11T07:38:28.681Z,99.10
2018-10-11T07:40:57.260Z,98.40
2018-10-11T07:43:25.688Z,98.90
2018-10-11T07:45:54.281Z,98.20
2018-10-11T07:48:22.776Z,97.50
2018-10-11T07:50:51.275Z,97.90
2018-10-11T07:53:19.746Z,97.40
2018-10-11T07:55:48.221Z,97.20
2018-10-11T07:58:16.692Z,96.50
2018-10-11T08:00:45.370Z,94.50
2018-10-11T08:03:13.872Z,95.40
2018-10-11T08:05:42.472Z,96.10
2018-10-11T08:08:11.018Z,96.00
2018-10-11T08:10:39.810Z,95.20
2018-10-11T08:13:08.329Z,93.70
2018-10-11T08:15:37.055Z,94.60
2018-10-11T08:18:06.132Z,95.70
2018-10-11T08:20:34.723Z,95.70
2018-10-11T08:23:03.249Z,95.10
2018-10-11T08:25:31.987Z,95.10
2018-10-11T08:28:00.259Z,95.00
2018-10-11T08:30:28.817Z,96.10
2018-10-11T08:32:57.316Z,94.90
2018-10-11T08:35:25.817Z,93.80
2018-10-11T08:37:55.517Z,93.90
2018-10-11T08:40:23.923Z,93.20
2018-10-11T08:42:52.459Z,92.70
2018-10-11T08:45:21.626Z,93.60
2018-10-11T08:47:50.194Z,93.40
2018-10-11T08:50:18.749Z,92.90
2018-10-11T08:52:47.168Z,92.80
2018-10-11T08:55:15.647Z,93.30
2018-10-11T08:57:44.275Z,92.50
2018-10-11T09:00:12.765Z,92.40
2018-10-11T09:02:41.203Z,92.00
2018-10-11T09:05:09.771Z,90.90
2018-10-11T09:07:38.169Z,91.80
2018-10-11T09:10:06.779Z,91.60
2018-10-11T09:12:35.307Z,90.90
2018-10-11T09:15:03.825Z,89.60
2018-10-11T09:17:32.589Z,87.80
2018-10-11T09:20:00.914Z,86.30
2018-10-11T09:22:29.424Z,88.90
2018-10-11T09:24:57.932Z,89.10
2018-10-11T09:27:26.421Z,87.80
2018-10-11T09:29:55.076Z,84.50
2018-10-11T09:32:23.522Z,81.90
2018-10-11T09:34:52.036Z,83.10
2018-10-11T09:37:20.510Z,84.90
2018-10-11T09:39:48.974Z,83.50
2018-10-11T09:42:17.575Z,81.00
2018-10-11T09:44:46.364Z,80.60
2018-10-11T09:47:14.870Z,80.50
2018-10-11T09:49:43.353Z,78.50
2018-10-11T09:52:11.914Z,77.00
2018-10-11T09:54:40.580Z,77.10
2018-10-11T09:57:27.530Z,77.90
2018-10-11T09:59:56.305Z,77.40
2018-10-11T10:02:25.683Z,79.10
2018-10-11T10:04:56.553Z,79.60
2018-10-11T10:07:25.013Z,78.80
2018-10-11T10:09:53.686Z,79.60
2018-10-11T10:12:22.500Z,79.90
2018-10-11T10:14:51.434Z,79.40
2018-10-11T10:17:20.405Z,78.40
2018-10-11T10:19:48.953Z,77.20
2018-10-11T10:22:17.396Z,78.10
2018-10-11T10:24:45.918Z,77.40
2018-10-11T10:27:14.528Z,76.30
2018-10-11T10:29:42.952Z,75.50
2018-10-11T10:32:11.427Z,75.80
2018-10-11T10:34:39.937Z,74.60
2018-10-11T10:37:08.518Z,72.20
2018-10-11T10:39:37.769Z,73.10
2018-10-11T10:42:06.341Z,72.10
2018-10-11T10:44:34.932Z,70.50
2018-10-11T10:47:03.538Z,71.10
2018-10-11T10:49:32.140Z,68.30
2018-10-11T10:52:00.635Z,68.20
2018-10-11T10:54:30.142Z,70.00
2018-10-11T10:56:59.464Z,69.50
2018-10-11T10:59:28.120Z,66.60
2018-10-11T11:01:56.580Z,66.30
2018-10-11T11:04:25.329Z,68.70
2018-10-11T11:06:54.050Z,67.10
2018-10-11T11:09:22.581Z,64.00
2018-10-11T11:11:51.166Z,63.30
2018-10-11T11:14:19.713Z,61.10
2018-10-11T11:16:48.234Z,58.90
2018-10-11T11:19:17.346Z,59.90
2018-10-11T11:21:45.813Z,61.20
2018-10-11T11:24:14.622Z,64.30
2018-10-11T11:26:43.057Z,62.90
2018-10-11T11:29:11.532Z,63.40
2018-10-11T11:31:39.957Z,60.40
2018-10-11T11:34:08.500Z,59.10
2018-10-11T11:36:36.978Z,55.00
2018-10-11T11:39:08.010Z,56.60
2018-10-11T11:41:36.655Z,56.80
2018-10-11T11:44:05.313Z,56.70
2018-10-11T11:46:33.950Z,57.60
2018-10-11T11:49:02.495Z,57.40
2018-10-11T11:51:31.142Z,57.70
2018-10-11T11:53:59.715Z,57.30
2018-10-11T11:56:28.363Z,56.50
2018-10-11T11:58:57.065Z,54.50
2018-10-11T12:01:26.075Z,52.90
2018-10-11T12:03:54.877Z,55.20
2018-10-11T12:06:23.442Z,54.20
2018-10-11T12:08:53.582Z,54.90
2018-10-11T12:11:22.062Z,57.00
2018-10-11T12:13:50.617Z,57.20
2018-10-11T12:16:20.208Z,57.50
2018-10-11T12:18:49.104Z,56.90
2018-10-11T12:21:17.878Z,57.40
2018-10-11T12:23:46.476Z,56.90
2018-10-11T12:26:14.985Z,54.80
2018-10-11T12:28:43.786Z,53.90
2018-10-11T12:31:12.081Z,55.10
2018-10-11T12:33:40.671Z,56.70
2018-10-11T12:36:09.383Z,59.10
2018-10-11T12:38:37.991Z,59.70
2018-10-11T12:41:06.534Z,60.80
2018-10-11T12:43:35.227Z,62.40
2018-10-11T12:46:03.762Z,63.10
2018-10-11T12:48:32.333Z,64.00
2018-10-11T12:51:00.907Z,64.60
2018-10-11T12:53:29.398Z,65.60
2018-10-11T12:55:57.938Z,65.30
2018-10-11T12:58:26.380Z,65.50
2018-10-11T13:00:54.896Z,65.40
2018-10-11T13:03:23.650Z,64.80
2018-10-11T13:05:52.349Z,64.90
2018-10-11T13:08:20.964Z,66.00
2018-10-11T13:10:49.481Z,66.70
2018-10-11T13:13:18.676Z,67.10
2018-10-11T13:15:47.271Z,67.60
2018-10-11T13:18:15.782Z,66.70
2018-10-11T13:20:44.316Z,67.50
2018-10-11T13:23:16.915Z,67.80
2018-10-11T13:25:41.658Z,68.10
2018-10-11T13:28:10.250Z,67.60
2018-10-11T13:30:38.835Z,68.20
2018-10-11T13:33:07.401Z,69.10
2018-10-11T13:35:35.851Z,69.20
2018-10-11T13:38:04.329Z,68.90
2018-10-11T13:40:32.891Z,69.60
2018-10-11T13:43:01.357Z,70.30
2018-10-11T13:45:29.837Z,69.80
2018-10-11T13:47:58.474Z,70.00
2018-10-11T13:50:26.911Z,70.40
2018-10-11T13:52:55.427Z,70.00
2018-10-11T13:55:23.886Z,70.50
2018-10-11T13:57:52.383Z,71.50
2018-10-11T14:00:20.981Z,71.20
2018-10-11T14:02:49.469Z,71.20
2018-10-11T14:05:18.368Z,72.30
2018-10-11T14:07:47.007Z,71.90
2018-10-11T14:10:15.503Z,72.40
2018-10-11T14:12:43.964Z,71.90
2018-10-11T14:15:12.469Z,73.30
2018-10-11T14:17:41.000Z,72.70
2018-10-11T14:20:09.563Z,73.30
2018-10-11T14:22:38.141Z,73.20
2018-10-11T14:25:07.426Z,74.20
2018-10-11T14:27:35.927Z,75.10
2018-10-11T14:30:04.558Z,75.70
2018-10-11T14:32:33.042Z,75.90
2018-10-11T14:35:01.517Z,75.80
2018-10-11T14:37:30.017Z,75.90
2018-10-11T14:39:58.498Z,76.30
2018-10-11T14:42:27.051Z,76.70
2018-10-11T14:44:55.564Z,77.20
2018-10-11T14:47:24.099Z,77.70
2018-10-11T14:49:52.685Z,77.70
2018-10-11T14:52:21.377Z,78.10
2018-10-11T14:54:49.937Z,78.50
2018-10-11T14:57:18.646Z,78.30
2018-10-11T14:59:47.061Z,79.10
2018-10-11T15:02:15.737Z,79.30
2018-10-11T15:04:44.414Z,79.40
2018-10-11T15:07:12.883Z,76.80
2018-10-11T15:09:43.092Z,73.00
2018-10-11T15:12:11.909Z,71.00
2018-10-11T15:14:40.485Z,69.60
2018-10-11T15:17:09.156Z,71.90
2018-10-11T15:19:37.751Z,73.70
2018-10-11T15:22:06.759Z,76.20
2018-10-11T15:24:35.394Z,77.70
2018-10-11T15:27:04.091Z,78.30
2018-10-11T15:29:32.637Z,78.40
2018-10-11T15:32:01.217Z,79.10
2018-10-11T15:34:29.860Z,79.20
2018-10-11T15:36:58.536Z,79.90
2018-10-11T15:39:27.383Z,80.40
2018-10-11T15:41:55.948Z,80.80
2018-10-11T15:44:24.587Z,81.60
2018-10-11T15:46:53.194Z,81.40
2018-10-11T15:49:21.829Z,81.40
2018-10-11T15:51:50.467Z,80.30
2018-10-11T15:54:18.957Z,81.50
2018-10-11T15:56:47.631Z,82.40
2018-10-11T15:59:16.697Z,82.90
2018-10-11T16:01:45.271Z,83.10
2018-10-11T16:04:13.847Z,83.90
2018-10-11T16:06:42.498Z,84.80
2018-10-11T16:09:11.515Z,85.80
2018-10-11T16:11:40.213Z,87.00
2018-10-11T16:14:08.791Z,87.50
2018-10-11T16:16:37.353Z,88.20
2018-10-11T16:19:06.254Z,89.40
2018-10-11T16:21:35.007Z,90.40
2018-10-11T16:24:03.649Z,90.50
2018-10-11T16:26:32.270Z,90.90
2018-10-11T16:29:00.910Z,91.30
2018-10-11T16:31:29.621Z,91.70
2018-10-11T16:33:59.157Z,92.80
2018-10-11T16:36:27.723Z,93.40
2018-10-11T16:38:56.256Z,94.00
2018-10-11T16:41:25.062Z,94.40
2018-10-11T16:43:57.935Z,94.80
2018-10-11T16:46:27.291Z,95.70
2018-10-11T16:49:02.930Z,96.20
2018-10-11T16:51:35.285Z,96.60
2018-10-11T16:54:11.166Z,97.30
2018-10-11T16:56:42.383Z,97.80
2018-10-11T17:02:01.455Z,99.40
2018-10-11T17:04:30.497Z,99.90
2018-10-11T17:07:00.789Z,99.90
2018-10-11T17:09:30.279Z,99.90
2018-10-11T17:12:01.041Z,99.90
2018-10-11T17:14:29.940Z,99.90
2018-10-11T17:16:59.210Z,99.90
2018-10-11T17:19:29.041Z,99.90
2018-10-11T17:21:58.104Z,99.90
2018-10-11T17:24:29.731Z,99.90
2018-10-11T17:26:58.575Z,99.90
2018-10-11T17:29:27.730Z,99.90
2018-10-11T17:31:56.437Z,99.90
2018-10-11T17:34:25.270Z,99.90
2018-10-11T17:36:53.863Z,99.90
2018-10-11T17:39:22.748Z,99.90
2018-10-11T17:41:51.427Z,99.90
2018-10-11T17:44:20.323Z,99.90
2018-10-11T17:46:49.095Z,99.90
2018-10-11T17:49:18.497Z,99.90
2018-10-11T17:51:47.593Z,99.90
2018-10-11T17:54:16.535Z,99.90
2018-10-11T17:56:45.345Z,99.90
2018-10-11T17:59:14.212Z,99.90
2018-10-11T18:01:42.885Z,99.90
2018-10-11T18:04:11.987Z,99.90
2018-10-11T18:06:40.967Z,99.90
2018-10-11T18:09:12.931Z,99.90
2018-10-11T18:11:43.370Z,99.90
2018-10-11T18:14:13.351Z,99.90
2018-10-11T18:16:42.785Z,99.90
2018-10-11T18:19:12.392Z,99.90
2018-10-11T18:21:41.890Z,99.90
2018-10-11T18:24:12.043Z,99.90
2018-10-11T18:26:42.239Z,99.90
2018-10-11T18:29:11.152Z,99.90
2018-10-11T18:31:40.846Z,99.90
2018-10-11T18:34:10.527Z,99.90
2018-10-11T18:36:39.571Z,99.90
2018-10-11T18:39:13.382Z,99.90
2018-10-11T18:41:44.791Z,99.90
2018-10-11T18:44:13.899Z,99.90
2018-10-11T18:46:42.760Z,99.90
2018-10-11T18:49:12.424Z,99.90
2018-10-11T18:51:41.330Z,99.90
2018-10-11T18:54:10.260Z,99.90
2018-10-11T18:56:38.995Z,99.90
2018-10-11T18:59:08.741Z,99.90
2018-10-11T19:01:38.225Z,99.90
2018-10-11T19:04:07.522Z,99.90
2018-10-11T19:06:36.468Z,99.90
2018-10-11T19:09:06.860Z,99.90
2018-10-11T19:11:35.680Z,99.90
2018-10-11T19:14:04.490Z,99.90
2018-10-11T19:16:33.952Z,99.90
2018-10-11T19:19:03.575Z,99.90
2018-10-11T19:21:32.755Z,99.90
2018-10-11T19:24:02.608Z,99.90
2018-10-11T19:26:31.399Z,99.90
2018-10-11T19:29:00.937Z,99.90
2018-10-11T19:31:29.854Z,99.90
2018-10-11T19:33:59.877Z,99.90
2018-10-11T19:36:29.470Z,99.90
2018-10-11T19:38:58.493Z,99.90
2018-10-11T19:41:27.935Z,99.90
2018-10-11T19:43:57.239Z,99.90
2018-10-11T19:46:26.074Z,99.90
2018-10-11T19:48:55.659Z,99.90
2018-10-11T19:51:32.921Z,99.90
2018-10-11T19:54:02.197Z,99.90
2018-10-11T19:56:33.417Z,99.90
2018-10-11T19:59:02.683Z,99.90
2018-10-11T20:01:31.738Z,99.90
2018-10-11T20:04:00.449Z,99.90
2018-10-11T20:06:29.146Z,99.90
2018-10-11T20:08:58.751Z,99.90
2018-10-11T20:11:27.808Z,99.90
2018-10-11T20:13:56.458Z,99.90
2018-10-11T20:16:25.113Z,99.90
2018-10-11T20:18:54.027Z,99.90
2018-10-11T20:21:22.965Z,99.90
2018-10-11T20:23:51.760Z,99.90
2018-10-11T20:26:20.603Z,99.90
2018-10-11T20:28:49.426Z,99.90
2018-10-11T20:31:18.432Z,99.90
2018-10-11T20:33:47.125Z,99.90
2018-10-11T20:36:15.798Z,99.90
2018-10-11T20:38:44.735Z,99.90
2018-10-11T20:41:13.628Z,99.90
2018-10-11T20:43:42.347Z,99.90
2018-10-11T20:46:11.242Z,99.90
2018-10-11T20:48:39.911Z,99.90
2018-10-11T20:51:08.865Z,99.90
2018-10-11T20:53:37.624Z,99.90
2018-10-11T20:56:06.930Z,99.90
2018-10-11T20:58:36.085Z,99.90
2018-10-11T21:01:04.982Z,99.90
2018-10-11T21:03:33.559Z,99.90
2018-10-11T21:06:02.187Z,99.90
2018-10-11T21:08:30.639Z,99.90
2018-10-11T21:10:59.308Z,99.90
2018-10-11T21:13:27.875Z,99.90
2018-10-11T21:15:56.449Z,99.90
2018-10-11T21:18:25.076Z,99.90
2018-10-11T21:20:53.644Z,99.90
2018-10-11T21:23:22.357Z,99.90
2018-10-11T21:25:51.012Z,99.90
2018-10-11T21:28:19.722Z,99.90
2018-10-11T21:30:48.196Z,99.90
2018-10-11T21:33:16.611Z,99.90
2018-10-11T21:35:45.213Z,99.90
2018-10-11T21:38:13.865Z,99.90
2018-10-11T21:40:42.370Z,99.90
2018-10-11T21:43:11.005Z,99.90
2018-10-11T21:45:39.517Z,99.90
2018-10-11T21:48:08.088Z,99.90
2018-10-11T21:50:36.689Z,99.90
2018-10-11T21:53:05.186Z,99.90
2018-10-11T21:55:33.809Z,99.90
2018-10-11T21:58:02.501Z,99.90
2018-10-11T22:00:36.352Z,99.90
2018-10-11T22:03:05.292Z,99.90
2018-10-11T22:05:35.030Z,99.90
2018-10-11T22:08:03.707Z,99.90
2018-10-11T22:10:32.311Z,99.90
2018-10-11T22:13:00.813Z,99.90
2018-10-11T22:15:29.340Z,99.90
2018-10-11T22:17:57.793Z,99.90
2018-10-11T22:20:26.437Z,99.90
2018-10-11T22:22:54.925Z,99.90
2018-10-11T22:25:24.137Z,99.90
2018-10-11T22:27:53.228Z,99.90
2018-10-11T22:30:21.697Z,99.90
2018-10-11T22:32:50.225Z,99.90
2018-10-11T22:35:18.756Z,99.90
2018-10-11T22:37:47.232Z,99.90
2018-10-11T22:40:15.750Z,99.90
2018-10-11T22:42:44.468Z,99.90
2018-10-11T22:45:13.039Z,99.90
2018-10-11T22:47:41.547Z,99.90
2018-10-11T22:50:10.089Z,99.90
2018-10-11T22:52:38.675Z,99.90
2018-10-11T22:55:07.483Z,99.90
2018-10-11T22:57:36.018Z,99.90
2018-10-11T23:00:04.592Z,99.90
2018-10-11T23:02:33.055Z,99.90
2018-10-11T23:05:02.624Z,99.90
2018-10-11T23:07:31.603Z,99.90
2018-10-11T23:10:00.097Z,99.90
2018-10-11T23:12:29.959Z,99.90
2018-10-11T23:14:58.582Z,99.90
2018-10-11T23:17:27.002Z,99.90
2018-10-11T23:19:55.725Z,99.90
2018-10-11T23:22:24.414Z,99.90
2018-10-11T23:24:52.868Z,99.90
2018-10-11T23:27:21.446Z,99.90
2018-10-11T23:29:49.886Z,99.90
2018-10-11T23:32:18.507Z,99.90
2018-10-11T23:34:47.038Z,99.90
2018-10-11T23:37:15.571Z,99.90
2018-10-11T23:39:44.207Z,99.90
2018-10-11T23:42:12.760Z,99.90
2018-10-11T23:44:41.324Z,99.90
2018-10-11T23:47:09.820Z,99.90
2018-10-11T23:49:38.801Z,99.90
2018-10-11T23:52:07.339Z,99.90
2018-10-11T23:54:36.122Z,99.90
2018-10-11T23:57:04.654Z,99.90
2018-10-11T23:59:33.096Z,99.90
